sensor_id;sensor_type;location;lat;lon;timestamp;pressure;altitude;pressure_sealevel;temperature;humidity
47636;BME280;33364;50.766;15.338;2022-09-02T00:01:01;95406.84;;;9.69;79.13
47636;BME280;33364;50.766;15.338;2022-09-02T00:03:29;95398.16;;;9.70;79.96
47636;BME280;33364;50.766;15.338;2022-09-02T00:05:55;95405.47;;;9.64;79.14
47636;BME280;33364;50.766;15.338;2022-09-02T00:08:22;95404.44;;;9.66;79.56
47636;BME280;33364;50.766;15.338;2022-09-02T00:10:48;95397.44;;;9.55;79.69
47636;BME280;33364;50.766;15.338;2022-09-02T00:13:15;95396.19;;;9.48;81.90
47636;BME280;33364;50.766;15.338;2022-09-02T00:15:42;95394.06;;;9.29;81.11
47636;BME280;33364;50.766;15.338;2022-09-02T00:18:08;95395.41;;;9.35;80.59
47636;BME280;33364;50.766;15.338;2022-09-02T00:20:40;95399.94;;;9.31;80.58
47636;BME280;33364;50.766;15.338;2022-09-02T00:23:07;95389.19;;;9.38;81.48
47636;BME280;33364;50.766;15.338;2022-09-02T00:25:34;95392.59;;;9.38;80.40
47636;BME280;33364;50.766;15.338;2022-09-02T00:27:59;95390.75;;;9.27;80.97
47636;BME280;33364;50.766;15.338;2022-09-02T00:30:25;95394.38;;;9.12;80.85
47636;BME280;33364;50.766;15.338;2022-09-02T00:32:51;95402.34;;;9.09;80.59
47636;BME280;33364;50.766;15.338;2022-09-02T00:35:16;95397.28;;;9.20;80.98
47636;BME280;33364;50.766;15.338;2022-09-02T00:37:42;95404.41;;;9.29;80.13
47636;BME280;33364;50.766;15.338;2022-09-02T00:40:08;95396.75;;;9.15;79.92
47636;BME280;33364;50.766;15.338;2022-09-02T00:42:36;95396.03;;;9.13;80.47
47636;BME280;33364;50.766;15.338;2022-09-02T00:45:04;95402.13;;;9.12;80.32
47636;BME280;33364;50.766;15.338;2022-09-02T00:47:31;95405.53;;;9.00;80.14
47636;BME280;33364;50.766;15.338;2022-09-02T00:49:57;95405.22;;;8.92;80.91
47636;BME280;33364;50.766;15.338;2022-09-02T00:52:26;95400.25;;;9.01;80.54
47636;BME280;33364;50.766;15.338;2022-09-02T00:55:02;95399.31;;;9.02;81.69
47636;BME280;33364;50.766;15.338;2022-09-02T00:57:33;95396.84;;;9.01;80.41
47636;BME280;33364;50.766;15.338;2022-09-02T01:00:08;95396.75;;;9.15;81.54
47636;BME280;33364;50.766;15.338;2022-09-02T01:02:38;95394.28;;;9.14;80.14
47636;BME280;33364;50.766;15.338;2022-09-02T01:05:06;95398.81;;;9.10;80.39
47636;BME280;33364;50.766;15.338;2022-09-02T01:07:34;95395.50;;;9.08;79.48
47636;BME280;33364;50.766;15.338;2022-09-02T01:10:06;95399.22;;;9.17;79.63
47636;BME280;33364;50.766;15.338;2022-09-02T01:12:32;95393.75;;;9.08;81.16
47636;BME280;33364;50.766;15.338;2022-09-02T01:14:57;95401.81;;;9.04;80.43
47636;BME280;33364;50.766;15.338;2022-09-02T01:17:24;95393.66;;;9.10;80.83
47636;BME280;33364;50.766;15.338;2022-09-02T01:19:57;95392.81;;;8.97;80.30
47636;BME280;33364;50.766;15.338;2022-09-02T01:22:27;95396.34;;;8.96;80.67
47636;BME280;33364;50.766;15.338;2022-09-02T01:24:56;95394.28;;;9.14;82.12
47636;BME280;33364;50.766;15.338;2022-09-02T01:27:24;95390.97;;;9.12;79.88
47636;BME280;33364;50.766;15.338;2022-09-02T01:29:56;95394.38;;;8.99;79.71
47636;BME280;33364;50.766;15.338;2022-09-02T01:32:22;95392.84;;;9.10;81.74
47636;BME280;33364;50.766;15.338;2022-09-02T01:34:49;95394.59;;;9.09;81.65
47636;BME280;33364;50.766;15.338;2022-09-02T01:37:15;95388.69;;;9.07;79.30
47636;BME280;33364;50.766;15.338;2022-09-02T01:39:41;95386.00;;;8.96;80.26
47636;BME280;33364;50.766;15.338;2022-09-02T01:42:06;95385.28;;;8.94;80.29
47636;BME280;33364;50.766;15.338;2022-09-02T01:44:34;95388.59;;;8.96;81.58
47636;BME280;33364;50.766;15.338;2022-09-02T01:47:03;95387.47;;;9.00;80.20
47636;BME280;33364;50.766;15.338;2022-09-02T01:49:28;95384.56;;;8.92;80.20
47636;BME280;33364;50.766;15.338;2022-09-02T01:51:55;95386.44;;;8.90;80.47
47636;BME280;33364;50.766;15.338;2022-09-02T01:54:20;95388.25;;;8.88;81.28
47636;BME280;33364;50.766;15.338;2022-09-02T01:56:46;95384.03;;;8.87;81.08
47636;BME280;33364;50.766;15.338;2022-09-02T01:59:12;95380.63;;;8.86;80.05
47636;BME280;33364;50.766;15.338;2022-09-02T02:01:45;95382.38;;;8.86;80.80
47636;BME280;33364;50.766;15.338;2022-09-02T02:04:12;95381.25;;;8.90;81.90
47636;BME280;33364;50.766;15.338;2022-09-02T02:06:43;95374.84;;;8.82;81.02
47636;BME280;33364;50.766;15.338;2022-09-02T02:09:10;95378.88;;;8.74;80.89
47636;BME280;33364;50.766;15.338;2022-09-02T02:11:36;95374.91;;;8.68;81.91
47636;BME280;33364;50.766;15.338;2022-09-02T02:14:03;95374.91;;;8.68;81.24
47636;BME280;33364;50.766;15.338;2022-09-02T02:16:29;95374.72;;;8.71;82.37
47636;BME280;33364;50.766;15.338;2022-09-02T02:18:54;95361.00;;;8.71;81.55
47636;BME280;33364;50.766;15.338;2022-09-02T02:21:20;95373.19;;;8.69;82.70
47636;BME280;33364;50.766;15.338;2022-09-02T02:23:46;95360.06;;;8.72;82.41
47636;BME280;33364;50.766;15.338;2022-09-02T02:26:11;95358.53;;;8.69;82.05
47636;BME280;33364;50.766;15.338;2022-09-02T02:28:37;95356.56;;;8.73;82.22
47636;BME280;33364;50.766;15.338;2022-09-02T02:31:04;95357.50;;;8.72;82.21
47636;BME280;33364;50.766;15.338;2022-09-02T02:33:30;95360.28;;;8.69;82.64
47636;BME280;33364;50.766;15.338;2022-09-02T02:35:56;95363.69;;;8.69;81.99
47636;BME280;33364;50.766;15.338;2022-09-02T02:38:22;95360.47;;;8.66;81.98
47636;BME280;33364;50.766;15.338;2022-09-02T02:40:47;95356.56;;;8.60;80.93
47636;BME280;33364;50.766;15.338;2022-09-02T02:43:13;95347.28;;;8.70;82.90
47636;BME280;33364;50.766;15.338;2022-09-02T02:45:39;95354.28;;;8.68;80.68
47636;BME280;33364;50.766;15.338;2022-09-02T02:48:04;95360.91;;;8.72;81.21
47636;BME280;33364;50.766;15.338;2022-09-02T02:50:30;95354.72;;;8.75;82.17
47636;BME280;33364;50.766;15.338;2022-09-02T02:52:56;95363.91;;;8.79;80.49
47636;BME280;33364;50.766;15.338;2022-09-02T02:55:23;95354.81;;;8.73;79.76
47636;BME280;33364;50.766;15.338;2022-09-02T02:57:49;95349.44;;;8.64;81.16
47636;BME280;33364;50.766;15.338;2022-09-02T03:02:43;95356.47;;;8.74;80.79
47636;BME280;33364;50.766;15.338;2022-09-02T03:05:10;95353.59;;;8.79;80.54
47636;BME280;33364;50.766;15.338;2022-09-02T03:07:36;95361.72;;;8.60;81.13
47636;BME280;33364;50.766;15.338;2022-09-02T03:10:04;95360.44;;;8.53;80.56
47636;BME280;33364;50.766;15.338;2022-09-02T03:12:34;95355.41;;;8.51;81.29
47636;BME280;33364;50.766;15.338;2022-09-02T03:14:59;95350.47;;;8.48;80.45
47636;BME280;33364;50.766;15.338;2022-09-02T03:17:26;95348.75;;;8.35;80.50
47636;BME280;33364;50.766;15.338;2022-09-02T03:19:52;95344.84;;;8.42;81.26
47636;BME280;33364;50.766;15.338;2022-09-02T03:22:18;95351.81;;;8.54;81.54
47636;BME280;33364;50.766;15.338;2022-09-02T03:24:44;95343.84;;;8.57;80.68
47636;BME280;33364;50.766;15.338;2022-09-02T03:27:10;95346.75;;;8.65;81.22
47636;BME280;33364;50.766;15.338;2022-09-02T03:29:35;95338.41;;;8.74;81.35
47636;BME280;33364;50.766;15.338;2022-09-02T03:32:01;95339.84;;;8.66;80.56
47636;BME280;33364;50.766;15.338;2022-09-02T03:34:27;95343.72;;;8.46;79.98
47636;BME280;33364;50.766;15.338;2022-09-02T03:36:53;95345.91;;;8.39;81.19
47636;BME280;33364;50.766;15.338;2022-09-02T03:39:18;95347.31;;;8.43;81.03
47636;BME280;33364;50.766;15.338;2022-09-02T03:41:45;95344.44;;;8.48;81.65
47636;BME280;33364;50.766;15.338;2022-09-02T03:44:13;95343.03;;;8.44;81.65
47636;BME280;33364;50.766;15.338;2022-09-02T03:46:38;95347.25;;;8.45;80.11
47636;BME280;33364;50.766;15.338;2022-09-02T03:49:04;95342.56;;;8.37;81.13
47636;BME280;33364;50.766;15.338;2022-09-02T03:51:30;95347.88;;;8.48;81.41
47636;BME280;33364;50.766;15.338;2022-09-02T03:53:55;95339.69;;;8.42;80.90
47636;BME280;33364;50.766;15.338;2022-09-02T03:56:22;95347.78;;;8.50;82.36
47636;BME280;33364;50.766;15.338;2022-09-02T03:58:50;95337.75;;;8.45;80.51
47636;BME280;33364;50.766;15.338;2022-09-02T04:01:20;95337.22;;;8.40;80.99
47636;BME280;33364;50.766;15.338;2022-09-02T04:03:46;95340.63;;;8.41;81.11
47636;BME280;33364;50.766;15.338;2022-09-02T04:06:14;95346.34;;;8.19;80.78
47636;BME280;33364;50.766;15.338;2022-09-02T04:08:41;95341.78;;;8.10;81.50
47636;BME280;33364;50.766;15.338;2022-09-02T04:11:11;95346.53;;;8.16;82.01
47636;BME280;33364;50.766;15.338;2022-09-02T04:13:38;95343.31;;;8.12;80.68
47636;BME280;33364;50.766;15.338;2022-09-02T04:16:12;95340.34;;;8.18;83.89
47636;BME280;33364;50.766;15.338;2022-09-02T04:18:39;95343.06;;;8.29;82.56
47636;BME280;33364;50.766;15.338;2022-09-02T04:21:05;95343.59;;;8.35;82.46
47636;BME280;33364;50.766;15.338;2022-09-02T04:23:31;95345.78;;;8.41;81.94
47636;BME280;33364;50.766;15.338;2022-09-02T04:26:01;95351.88;;;8.40;82.64
47636;BME280;33364;50.766;15.338;2022-09-02T04:28:27;95345.97;;;8.38;82.19
47636;BME280;33364;50.766;15.338;2022-09-02T04:30:52;95349.69;;;8.34;81.71
47636;BME280;33364;50.766;15.338;2022-09-02T04:33:18;95352.63;;;8.27;82.41
47636;BME280;33364;50.766;15.338;2022-09-02T04:35:45;95356.78;;;8.30;81.95
47636;BME280;33364;50.766;15.338;2022-09-02T04:38:14;95351.25;;;8.36;82.33
47636;BME280;33364;50.766;15.338;2022-09-02T04:40:42;95344.41;;;8.35;82.89
47636;BME280;33364;50.766;15.338;2022-09-02T04:43:09;95346.16;;;8.35;81.78
47636;BME280;33364;50.766;15.338;2022-09-02T04:45:38;95345.81;;;8.26;81.69
47636;BME280;33364;50.766;15.338;2022-09-02T04:48:04;95352.84;;;8.24;82.92
47636;BME280;33364;50.766;15.338;2022-09-02T04:50:29;95347.47;;;8.27;82.03
47636;BME280;33364;50.766;15.338;2022-09-02T04:52:55;95349.44;;;8.24;82.11
47636;BME280;33364;50.766;15.338;2022-09-02T04:55:20;95356.72;;;8.17;83.61
47636;BME280;33364;50.766;15.338;2022-09-02T04:57:46;95350.81;;;8.29;83.86
47636;BME280;33364;50.766;15.338;2022-09-02T05:00:12;95344.22;;;8.38;83.80
47636;BME280;33364;50.766;15.338;2022-09-02T05:02:38;95342.84;;;8.32;83.71
47636;BME280;33364;50.766;15.338;2022-09-02T05:05:04;95347.00;;;8.35;83.42
47636;BME280;33364;50.766;15.338;2022-09-02T05:07:30;95346.91;;;8.37;82.60
47636;BME280;33364;50.766;15.338;2022-09-02T05:09:58;95344.22;;;8.38;82.32
47636;BME280;33364;50.766;15.338;2022-09-02T05:12:23;95344.44;;;8.48;83.26
47636;BME280;33364;50.766;15.338;2022-09-02T05:14:53;95350.34;;;8.50;82.56
47636;BME280;33364;50.766;15.338;2022-09-02T05:17:20;95343.97;;;8.55;82.82
47636;BME280;33364;50.766;15.338;2022-09-02T05:19:46;95354.69;;;8.49;82.03
47636;BME280;33364;50.766;15.338;2022-09-02T05:22:11;95349.72;;;8.46;82.78
47636;BME280;33364;50.766;15.338;2022-09-02T05:24:37;95349.31;;;8.52;82.84
47636;BME280;33364;50.766;15.338;2022-09-02T05:27:03;95346.03;;;8.50;82.36
47636;BME280;33364;50.766;15.338;2022-09-02T05:29:28;95346.22;;;8.47;82.85
47636;BME280;33364;50.766;15.338;2022-09-02T05:31:54;95340.84;;;8.50;82.58
47636;BME280;33364;50.766;15.338;2022-09-02T05:34:19;95342.19;;;8.56;83.11
47636;BME280;33364;50.766;15.338;2022-09-02T05:36:45;95336.81;;;8.46;82.87
47636;BME280;33364;50.766;15.338;2022-09-02T05:39:11;95340.34;;;8.58;83.56
47636;BME280;33364;50.766;15.338;2022-09-02T05:41:37;95339.72;;;8.54;82.85
47636;BME280;33364;50.766;15.338;2022-09-02T05:44:05;95337.03;;;8.56;82.96
47636;BME280;33364;50.766;15.338;2022-09-02T05:46:31;95341.28;;;8.57;83.94
47636;BME280;33364;50.766;15.338;2022-09-02T05:48:57;95334.69;;;8.66;83.17
47636;BME280;33364;50.766;15.338;2022-09-02T05:51:40;95340.25;;;8.72;83.54
47636;BME280;33364;50.766;15.338;2022-09-02T05:54:09;95339.53;;;8.83;83.70
47636;BME280;33364;50.766;15.338;2022-09-02T05:56:40;95332.00;;;9.05;84.07
47636;BME280;33364;50.766;15.338;2022-09-02T05:59:05;95329.31;;;9.20;83.08
47636;BME280;33364;50.766;15.338;2022-09-02T06:01:33;95339.50;;;9.34;82.79
47636;BME280;33364;50.766;15.338;2022-09-02T06:03:59;95335.03;;;9.49;82.90
47636;BME280;33364;50.766;15.338;2022-09-02T06:06:30;95341.72;;;9.64;82.88
47636;BME280;33364;50.766;15.338;2022-09-02T06:08:57;95343.94;;;9.81;82.52
47636;BME280;33364;50.766;15.338;2022-09-02T06:11:23;95332.38;;;9.98;82.11
47636;BME280;33364;50.766;15.338;2022-09-02T06:13:49;95342.47;;;10.14;81.43
47636;BME280;33364;50.766;15.338;2022-09-02T06:16:18;95333.72;;;10.28;81.32
47636;BME280;33364;50.766;15.338;2022-09-02T06:18:45;95339.53;;;10.43;80.99
47636;BME280;33364;50.766;15.338;2022-09-02T06:21:12;95327.69;;;10.62;80.96
47636;BME280;33364;50.766;15.338;2022-09-02T06:23:39;95333.25;;;10.69;79.88
47636;BME280;33364;50.766;15.338;2022-09-02T06:26:07;95330.22;;;10.86;79.92
47636;BME280;33364;50.766;15.338;2022-09-02T06:28:33;95333.06;;;11.06;79.57
47636;BME280;33364;50.766;15.338;2022-09-02T06:31:05;95328.84;;;11.16;78.04
47636;BME280;33364;50.766;15.338;2022-09-02T06:33:32;95320.94;;;11.29;78.85
47636;BME280;33364;50.766;15.338;2022-09-02T06:35:57;95319.88;;;11.43;78.06
47636;BME280;33364;50.766;15.338;2022-09-02T06:38:22;95322.19;;;11.68;78.72
47636;BME280;33364;50.766;15.338;2022-09-02T06:40:53;95321.00;;;11.83;77.82
47636;BME280;33364;50.766;15.338;2022-09-02T06:43:19;95320.50;;;12.01;76.50
47636;BME280;33364;50.766;15.338;2022-09-02T06:45:45;95318.91;;;12.21;76.12
47636;BME280;33364;50.766;15.338;2022-09-02T06:48:11;95320.44;;;12.44;75.89
47636;BME280;33364;50.766;15.338;2022-09-02T06:50:39;95315.97;;;12.67;75.16
47636;BME280;33364;50.766;15.338;2022-09-02T06:53:05;95315.81;;;12.89;75.32
47636;BME280;33364;50.766;15.338;2022-09-02T06:55:37;95324.69;;;13.08;73.98
47636;BME280;33364;50.766;15.338;2022-09-02T06:58:03;95329.56;;;13.22;72.01
47636;BME280;33364;50.766;15.338;2022-09-02T07:00:29;95326.34;;;13.39;71.78
47636;BME280;33364;50.766;15.338;2022-09-02T07:02:59;95325.88;;;13.65;70.33
47636;BME280;33364;50.766;15.338;2022-09-02T07:05:42;95326.50;;;13.88;72.15
47636;BME280;33364;50.766;15.338;2022-09-02T07:08:08;95323.53;;;14.21;71.34
47636;BME280;33364;50.766;15.338;2022-09-02T07:10:38;95324.22;;;14.43;71.60
47636;BME280;33364;50.766;15.338;2022-09-02T07:13:05;95316.84;;;14.67;70.12
47636;BME280;33364;50.766;15.338;2022-09-02T07:15:33;95323.09;;;14.84;65.14
47636;BME280;33364;50.766;15.338;2022-09-02T07:18:00;95313.88;;;14.99;67.90
47636;BME280;33364;50.766;15.338;2022-09-02T07:20:26;95314.66;;;15.10;65.69
47636;BME280;33364;50.766;15.338;2022-09-02T07:22:52;95316.38;;;15.38;67.01
47636;BME280;33364;50.766;15.338;2022-09-02T07:25:19;95321.19;;;15.70;65.78
47636;BME280;33364;50.766;15.338;2022-09-02T07:27:44;95320.44;;;16.05;60.79
47636;BME280;33364;50.766;15.338;2022-09-02T07:30:11;95320.38;;;16.33;58.03
47636;BME280;33364;50.766;15.338;2022-09-02T07:32:37;95320.34;;;16.69;61.68
47636;BME280;33364;50.766;15.338;2022-09-02T07:35:04;95320.91;;;16.72;50.08
47636;BME280;33364;50.766;15.338;2022-09-02T07:37:31;95325.34;;;16.98;52.62
47636;BME280;33364;50.766;15.338;2022-09-02T07:40:02;95326.19;;;17.06;47.48
47636;BME280;33364;50.766;15.338;2022-09-02T07:42:29;95312.72;;;17.19;46.18
47636;BME280;33364;50.766;15.338;2022-09-02T07:44:55;95314.19;;;17.48;46.28
47636;BME280;33364;50.766;15.338;2022-09-02T07:47:20;95311.81;;;17.71;45.58
47636;BME280;33364;50.766;15.338;2022-09-02T07:49:46;95314.72;;;18.02;51.20
47636;BME280;33364;50.766;15.338;2022-09-02T07:52:13;95325.41;;;18.08;45.71
47636;BME280;33364;50.766;15.338;2022-09-02T07:54:38;95320.56;;;18.38;45.98
47636;BME280;33364;50.766;15.338;2022-09-02T07:57:04;95318.41;;;18.50;46.27
47636;BME280;33364;50.766;15.338;2022-09-02T07:59:30;95322.03;;;18.32;46.81
47636;BME280;33364;50.766;15.338;2022-09-02T08:01:56;95318.75;;;18.38;45.23
47636;BME280;33364;50.766;15.338;2022-09-02T08:04:22;95314.97;;;18.33;44.53
47636;BME280;33364;50.766;15.338;2022-09-02T08:06:50;95313.97;;;18.34;43.75
47636;BME280;33364;50.766;15.338;2022-09-02T08:09:17;95322.38;;;17.79;41.98
47636;BME280;33364;50.766;15.338;2022-09-02T08:11:45;95318.16;;;17.60;46.06
47636;BME280;33364;50.766;15.338;2022-09-02T08:14:14;95323.28;;;17.35;45.82
47636;BME280;33364;50.766;15.338;2022-09-02T08:16:42;95315.38;;;17.01;43.95
47636;BME280;33364;50.766;15.338;2022-09-02T08:19:08;95323.56;;;16.80;45.34
47636;BME280;33364;50.766;15.338;2022-09-02T08:21:33;95328.66;;;16.46;46.99
47636;BME280;33364;50.766;15.338;2022-09-02T08:23:59;95316.78;;;16.34;46.72
47636;BME280;33364;50.766;15.338;2022-09-02T08:26:25;95329.31;;;16.30;50.49
47636;BME280;33364;50.766;15.338;2022-09-02T08:28:54;95315.88;;;16.25;50.86
47636;BME280;33364;50.766;15.338;2022-09-02T08:31:19;95314.75;;;16.10;49.21
47636;BME280;33364;50.766;15.338;2022-09-02T08:33:45;95315.47;;;16.12;50.81
47636;BME280;33364;50.766;15.338;2022-09-02T08:36:11;95317.41;;;16.28;50.13
47636;BME280;33364;50.766;15.338;2022-09-02T08:38:40;95318.44;;;16.35;50.06
47636;BME280;33364;50.766;15.338;2022-09-02T08:41:29;95312.16;;;16.46;52.73
47636;BME280;33364;50.766;15.338;2022-09-02T08:43:59;95307.63;;;16.48;48.98
47636;BME280;33364;50.766;15.338;2022-09-02T08:46:27;95313.94;;;16.45;48.28
47636;BME280;33364;50.766;15.338;2022-09-02T08:49:11;95321.66;;;16.47;48.28
47636;BME280;33364;50.766;15.338;2022-09-02T08:51:45;95316.06;;;16.42;46.46
47636;BME280;33364;50.766;15.338;2022-09-02T08:56:40;95310.13;;;16.93;44.58
47636;BME280;33364;50.766;15.338;2022-09-02T08:59:08;95309.22;;;16.85;43.83
47636;BME280;33364;50.766;15.338;2022-09-02T09:01:50;95311.69;;;16.86;44.35
47636;BME280;33364;50.766;15.338;2022-09-02T09:17:55;95305.69;;;16.32;49.79
47636;BME280;33364;50.766;15.338;2022-09-02T09:20:32;95303.56;;;16.36;47.23
47636;BME280;33364;50.766;15.338;2022-09-02T09:23:08;95304.19;;;16.29;46.99
47636;BME280;33364;50.766;15.338;2022-09-02T09:25:41;95303.44;;;16.19;49.14
47636;BME280;33364;50.766;15.338;2022-09-02T09:28:08;95309.63;;;16.18;45.77
47636;BME280;33364;50.766;15.338;2022-09-02T09:30:34;95300.53;;;16.22;45.10
47636;BME280;33364;50.766;15.338;2022-09-02T09:33:00;95303.06;;;16.14;46.75
47636;BME280;33364;50.766;15.338;2022-09-02T09:35:27;95301.03;;;16.26;50.34
47636;BME280;33364;50.766;15.338;2022-09-02T09:38:12;95303.56;;;16.36;46.31
47636;BME280;33364;50.766;15.338;2022-09-02T09:40:38;95302.75;;;16.35;46.54
47636;BME280;33364;50.766;15.338;2022-09-02T09:53:33;95306.19;;;16.53;49.58
47636;BME280;33364;50.766;15.338;2022-09-02T09:56:01;95302.22;;;16.49;49.53
47636;BME280;33364;50.766;15.338;2022-09-02T09:58:33;95294.88;;;16.27;48.01
47636;BME280;33364;50.766;15.338;2022-09-02T10:01:22;95300.91;;;16.27;49.79
47636;BME280;33364;50.766;15.338;2022-09-02T10:03:57;95307.94;;;16.27;49.69
47636;BME280;33364;50.766;15.338;2022-09-02T10:06:35;95301.84;;;16.26;51.15
47636;BME280;33364;50.766;15.338;2022-09-02T10:09:28;95301.03;;;16.79;52.08
47636;BME280;33364;50.766;15.338;2022-09-02T10:11:56;95290.53;;;17.66;49.95
47636;BME280;33364;50.766;15.338;2022-09-02T10:14:23;95294.56;;;17.86;48.49
47636;BME280;33364;50.766;15.338;2022-09-02T10:17:18;95299.06;;;17.68;49.58
47636;BME280;33364;50.766;15.338;2022-09-02T10:31:15;95284.13;;;17.18;50.37
47636;BME280;33364;50.766;15.338;2022-09-02T10:34:09;95287.28;;;17.29;51.14
47636;BME280;33364;50.766;15.338;2022-09-02T10:40:02;95277.34;;;17.41;50.58
47636;BME280;33364;50.766;15.338;2022-09-02T10:45:23;95279.25;;;17.31;51.10
47636;BME280;33364;50.766;15.338;2022-09-02T10:50:59;95277.56;;;17.56;49.62
47636;BME280;33364;50.766;15.338;2022-09-02T10:56:50;95277.09;;;17.60;48.65
47636;BME280;33364;50.766;15.338;2022-09-02T10:59:25;95278.38;;;17.56;48.51
47636;BME280;33364;50.766;15.338;2022-09-02T11:04:51;95267.78;;;17.24;48.57
47636;BME280;33364;50.766;15.338;2022-09-02T11:07:28;95276.28;;;17.18;49.71
47636;BME280;33364;50.766;15.338;2022-09-02T11:10:00;95273.97;;;17.15;48.48
47636;BME280;33364;50.766;15.338;2022-09-02T11:12:37;95271.09;;;17.00;48.68
47636;BME280;33364;50.766;15.338;2022-09-02T11:15:28;95266.06;;;16.80;49.54
47636;BME280;33364;50.766;15.338;2022-09-02T11:21:18;95270.19;;;16.83;49.85
47636;BME280;33364;50.766;15.338;2022-09-02T11:23:56;95264.59;;;16.78;50.88
47636;BME280;33364;50.766;15.338;2022-09-02T11:26:27;95274.06;;;16.79;50.10
47636;BME280;33364;50.766;15.338;2022-09-02T11:29:04;95271.34;;;16.71;52.05
47636;BME280;33364;50.766;15.338;2022-09-02T11:34:25;95271.34;;;16.71;51.83
47636;BME280;33364;50.766;15.338;2022-09-02T11:37:05;95275.28;;;16.67;52.27
47636;BME280;33364;50.766;15.338;2022-09-02T11:53:12;95259.53;;;17.45;50.02
47636;BME280;33364;50.766;15.338;2022-09-02T11:55:47;95258.72;;;17.78;49.71
47636;BME280;33364;50.766;15.338;2022-09-02T11:58:37;95263.50;;;17.57;48.41
47636;BME280;33364;50.766;15.338;2022-09-02T12:01:20;95264.25;;;17.41;47.38
47636;BME280;33364;50.766;15.338;2022-09-02T12:06:37;95267.78;;;17.66;48.00
47636;BME280;33364;50.766;15.338;2022-09-02T12:09:42;95262.31;;;17.77;47.50
47636;BME280;33364;50.766;15.338;2022-09-02T12:12:08;95261.00;;;17.73;46.92
47636;BME280;33364;50.766;15.338;2022-09-02T12:17:01;95263.91;;;17.28;45.69
47636;BME280;33364;50.766;15.338;2022-09-02T12:27:25;95254.59;;;16.99;46.17
47636;BME280;33364;50.766;15.338;2022-09-02T12:29:52;95250.78;;;16.94;48.11
47636;BME280;33364;50.766;15.338;2022-09-02T12:35:34;95244.19;;;17.16;49.77
47636;BME280;33364;50.766;15.338;2022-09-02T12:43:55;95237.56;;;16.95;47.64
47636;BME280;33364;50.766;15.338;2022-09-02T12:54:16;95235.00;;;17.03;49.43
47636;BME280;33364;50.766;15.338;2022-09-02T12:56:47;95238.59;;;17.02;48.13
47636;BME280;33364;50.766;15.338;2022-09-02T12:59:28;95234.72;;;17.15;47.07
47636;BME280;33364;50.766;15.338;2022-09-02T13:02:35;95236.28;;;17.33;49.14
47636;BME280;33364;50.766;15.338;2022-09-02T13:16:37;95216.19;;;17.93;45.77
47636;BME280;33364;50.766;15.338;2022-09-02T13:19:08;95220.41;;;17.85;44.41
47636;BME280;33364;50.766;15.338;2022-09-02T13:21:48;95207.75;;;17.65;44.61
47636;BME280;33364;50.766;15.338;2022-09-02T13:32:40;95209.53;;;17.48;44.22
47636;BME280;33364;50.766;15.338;2022-09-02T13:35:15;95211.47;;;17.46;45.59
47636;BME280;33364;50.766;15.338;2022-09-02T13:37:42;95212.56;;;17.35;44.41
47636;BME280;33364;50.766;15.338;2022-09-02T13:40:23;95210.88;;;17.18;46.23
47636;BME280;33364;50.766;15.338;2022-09-02T13:42:57;95212.50;;;17.19;46.89
47636;BME280;33364;50.766;15.338;2022-09-02T13:45:25;95209.44;;;17.31;46.69
47636;BME280;33364;50.766;15.338;2022-09-02T13:47:53;95196.75;;;17.45;44.96
47636;BME280;33364;50.766;15.338;2022-09-02T13:50:25;95202.09;;;17.35;44.28
47636;BME280;33364;50.766;15.338;2022-09-02T13:52:54;95204.66;;;17.19;46.40
47636;BME280;33364;50.766;15.338;2022-09-02T13:55:20;95211.53;;;17.20;46.70
47636;BME280;33364;50.766;15.338;2022-09-02T13:58:04;95203.03;;;17.18;45.15
47636;BME280;33364;50.766;15.338;2022-09-02T14:00:35;95204.16;;;17.15;43.72
47636;BME280;33364;50.766;15.338;2022-09-02T14:03:07;95197.75;;;17.09;44.27
47636;BME280;33364;50.766;15.338;2022-09-02T14:05:37;95198.41;;;17.12;44.93
47636;BME280;33364;50.766;15.338;2022-09-02T14:08:06;95194.75;;;16.96;43.25
47636;BME280;33364;50.766;15.338;2022-09-02T14:10:36;95195.22;;;16.92;46.13
47636;BME280;33364;50.766;15.338;2022-09-02T14:13:05;95191.75;;;16.83;45.75
47636;BME280;33364;50.766;15.338;2022-09-02T14:15:32;95190.50;;;16.69;47.82
47636;BME280;33364;50.766;15.338;2022-09-02T14:18:19;95194.47;;;16.73;51.39
47636;BME280;33364;50.766;15.338;2022-09-02T14:20:55;95195.53;;;16.89;49.12
47636;BME280;33364;50.766;15.338;2022-09-02T14:23:22;95186.19;;;17.12;47.28
47636;BME280;33364;50.766;15.338;2022-09-02T14:25:51;95187.06;;;17.29;47.95
47636;BME280;33364;50.766;15.338;2022-09-02T14:28:26;95188.91;;;17.45;47.34
47636;BME280;33364;50.766;15.338;2022-09-02T14:30:57;95183.22;;;17.57;47.92
47636;BME280;33364;50.766;15.338;2022-09-02T14:43:47;95180.47;;;17.67;45.36
47636;BME280;33364;50.766;15.338;2022-09-02T14:46:21;95186.50;;;17.68;46.09
47636;BME280;33364;50.766;15.338;2022-09-02T14:48:58;95179.69;;;17.83;46.86
47636;BME280;33364;50.766;15.338;2022-09-02T14:51:31;95176.69;;;17.70;45.74
47636;BME280;33364;50.766;15.338;2022-09-02T14:53:59;95173.78;;;17.81;46.64
47636;BME280;33364;50.766;15.338;2022-09-02T14:59:09;95180.66;;;17.74;48.26
47636;BME280;33364;50.766;15.338;2022-09-02T15:01:40;95188.28;;;17.59;48.05
47636;BME280;33364;50.766;15.338;2022-09-02T15:04:08;95174.75;;;17.21;48.01
47636;BME280;33364;50.766;15.338;2022-09-02T15:06:34;95176.50;;;17.04;48.56
47636;BME280;33364;50.766;15.338;2022-09-02T15:09:00;95175.75;;;16.86;49.24
47636;BME280;33364;50.766;15.338;2022-09-02T15:11:25;95174.47;;;16.64;49.55
47636;BME280;33364;50.766;15.338;2022-09-02T15:13:51;95174.88;;;16.51;49.85
47636;BME280;33364;50.766;15.338;2022-09-02T15:16:16;95173.69;;;16.46;49.67
47636;BME280;33364;50.766;15.338;2022-09-02T15:18:42;95182.97;;;16.40;50.45
47636;BME280;33364;50.766;15.338;2022-09-02T15:21:08;95181.69;;;16.44;51.69
47636;BME280;33364;50.766;15.338;2022-09-02T15:23:33;95178.88;;;16.38;50.68